Time;durP1;ratioP1;P1;durP2;ratioP2;P2;SDS_P1;SDS_P2;PMS_P1;PMS_P2;Temp;Humidity;BMP_temperature;BMP_pressure;BME280_temperature;BME280_humidity;BME280_pressure;Samples;Min_cycle;Max_cycle;Signal;HPM_P1;HPM_P2
2021/04/19 00:01:12;;;;;;;21.10;10.95;;;;;;;3.74;80.69;96956.78;5009908;28;20164;-64
2021/04/19 00:03:37;;;;;;;24.63;12.90;;;;;;;3.78;80.61;96955.06;5009369;28;20045;-64
2021/04/19 00:06:03;;;;;;;22.90;11.57;;;;;;;3.79;80.71;96958.56;5015819;28;20038;-62
2021/04/19 00:08:28;;;;;;;20.02;11.15;;;;;;;3.59;80.32;96954.53;5004565;28;20141;-63
2021/04/19 00:10:54;;;;;;;23.90;12.13;;;;;;;3.59;80.45;96946.41;5006042;28;20049;-65
2021/04/19 00:13:19;;;;;;;19.45;10.27;;;;;;;3.63;80.90;96948.16;5001437;28;20049;-62
2021/04/19 00:15:45;;;;;;;21.48;11.73;;;;;;;3.54;80.91;96944.63;5005286;28;20053;-64
2021/04/19 00:18:11;;;;;;;20.63;12.38;;;;;;;3.40;80.69;96939.34;4999863;28;20037;-63
2021/04/19 00:20:37;;;;;;;20.95;11.43;;;;;;;3.32;81.68;96942.03;5008611;28;20049;-64
2021/04/19 00:23:02;;;;;;;22.52;12.32;;;;;;;3.18;82.26;96936.72;5016883;28;20046;-61
2021/04/19 00:25:28;;;;;;;22.40;12.20;;;;;;;2.98;83.93;96936.16;5012824;28;20088;-64
2021/04/19 00:27:53;;;;;;;22.67;13.38;;;;;;;2.62;85.59;96939.78;5006634;28;20042;-63
2021/04/19 00:30:20;;;;;;;24.80;13.88;;;;;;;2.63;86.49;96938.69;4999912;28;20488;-63
2021/04/19 00:32:46;;;;;;;25.02;13.48;;;;;;;2.71;86.00;96936.34;5004495;28;20531;-63
2021/04/19 00:35:12;;;;;;;27.35;13.93;;;;;;;2.96;85.86;96934.88;5000660;28;20046;-64
2021/04/19 00:37:38;;;;;;;24.55;13.05;;;;;;;3.24;84.45;96936.28;5005628;28;20042;-64
2021/04/19 00:40:15;;;;;;;25.10;13.30;;;;;;;3.48;83.17;96928.88;5004469;28;20072;-61
2021/04/19 00:42:42;;;;;;;22.55;12.23;;;;;;;3.70;82.32;96928.75;5010135;28;20088;-64
2021/04/19 00:45:10;;;;;;;21.83;12.20;;;;;;;3.78;81.87;96930.69;5003852;28;20042;-62
2021/04/19 00:47:36;;;;;;;22.92;12.50;;;;;;;3.82;81.19;96926.22;5004499;28;20508;-62
2021/04/19 00:50:05;;;;;;;24.65;12.02;;;;;;;3.83;82.00;96924.28;5003679;28;20049;-63
2021/04/19 00:52:31;;;;;;;20.83;10.90;;;;;;;3.85;81.44;96924.78;5004919;28;20046;-62
2021/04/19 00:54:58;;;;;;;18.95;10.93;;;;;;;3.89;81.58;96922.22;5009497;28;20081;-62
2021/04/19 00:57:23;;;;;;;23.85;12.50;;;;;;;3.98;81.37;96923.03;5007128;28;20056;-63
2021/04/19 00:59:49;;;;;;;21.45;11.98;;;;;;;4.06;80.52;96921.47;5001835;28;20568;-63
2021/04/19 01:02:14;;;;;;;20.85;11.32;;;;;;;4.09;80.74;96923.50;4998344;28;20037;-63
2021/04/19 01:04:39;;;;;;;20.23;10.80;;;;;;;4.07;79.72;96920.31;5002122;28;20076;-63
2021/04/19 01:07:05;;;;;;;23.23;11.85;;;;;;;3.76;81.82;96919.38;4999335;28;20041;-61
2021/04/19 01:09:30;;;;;;;21.35;11.63;;;;;;;3.36;83.55;96921.34;5002654;28;20046;-63
2021/04/19 01:11:56;;;;;;;28.15;13.48;;;;;;;3.34;84.10;96910.03;5005092;28;20053;-63
2021/04/19 01:14:21;;;;;;;23.85;12.38;;;;;;;3.41;84.24;96911.16;4999353;28;20096;-63
2021/04/19 01:16:46;;;;;;;24.50;12.30;;;;;;;3.44;83.53;96915.16;5001691;28;20045;-63
2021/04/19 01:19:12;;;;;;;22.73;11.15;;;;;;;3.39;83.23;96912.59;5000778;28;20049;-63
2021/04/19 01:21:37;;;;;;;24.83;12.48;;;;;;;3.37;83.78;96921.03;5006456;28;20081;-63
2021/04/19 01:24:03;;;;;;;23.30;12.40;;;;;;;3.31;84.33;96906.03;4998534;28;20081;-60
2021/04/19 01:26:28;;;;;;;27.30;13.30;;;;;;;3.27;84.96;96915.09;5001091;28;20057;-61
2021/04/19 01:28:54;;;;;;;23.10;12.13;;;;;;;3.33;84.75;96911.13;5002362;28;20157;-63
2021/04/19 01:31:20;;;;;;;23.98;11.82;;;;;;;3.51;84.77;96906.56;4992746;28;20128;-63
2021/04/19 01:33:46;;;;;;;23.60;12.40;;;;;;;3.61;83.64;96908.97;4997515;28;20063;-64
2021/04/19 01:36:11;;;;;;;27.15;12.85;;;;;;;3.55;83.61;96911.03;4998868;28;20097;-63
2021/04/19 01:38:37;;;;;;;25.42;12.90;;;;;;;3.47;83.35;96906.38;4998338;28;20047;-63
2021/04/19 01:41:03;;;;;;;27.27;12.73;;;;;;;3.44;83.29;96904.31;4994866;28;20560;-62
2021/04/19 01:43:29;;;;;;;26.92;13.75;;;;;;;3.42;83.04;96910.06;5002033;28;20095;-65
2021/04/19 01:45:55;;;;;;;27.10;13.32;;;;;;;3.43;83.23;96910.84;4994214;28;20038;-62
2021/04/19 01:48:22;;;;;;;21.98;11.52;;;;;;;3.56;82.85;96923.44;4996314;28;20039;-63
2021/04/19 01:50:50;;;;;;;27.83;14.50;;;;;;;3.79;82.77;96915.22;4996054;28;20042;-62
2021/04/19 01:53:15;;;;;;;28.55;13.48;;;;;;;4.12;80.89;96914.75;4993520;28;20042;-62
2021/04/19 01:55:41;;;;;;;24.38;12.25;;;;;;;4.19;80.24;96915.06;4997820;28;20567;-65
2021/04/19 01:58:18;;;;;;;22.83;13.18;;;;;;;3.94;81.08;96922.06;4996139;28;20125;-62
2021/04/19 02:00:48;;;;;;;22.58;11.93;;;;;;;4.06;81.49;96918.75;5003181;28;20041;-64
2021/04/19 02:03:46;;;;;;;25.08;12.98;;;;;;;3.97;81.45;96927.66;5008362;28;20042;-64
2021/04/19 02:06:17;;;;;;;21.10;11.55;;;;;;;3.93;81.95;96915.06;4971717;28;20072;-62
2021/04/19 02:09:03;;;;;;;21.75;11.23;;;;;;;3.89;82.19;96911.38;5003152;28;20073;-64
2021/04/19 02:11:38;;;;;;;23.10;12.80;;;;;;;3.70;82.53;96917.13;4995392;28;20076;-64
2021/04/19 02:14:14;;;;;;;22.60;12.40;;;;;;;3.57;82.71;96913.44;4986907;28;20053;-62
2021/04/19 02:17:17;;;;;;;26.58;12.27;;;;;;;3.63;83.66;96920.28;5001839;28;20049;-64
2021/04/19 02:19:51;;;;;;;26.65;13.10;;;;;;;3.67;83.08;96915.03;4996536;28;20046;-65
2021/04/19 02:22:38;;;;;;;22.17;12.73;;;;;;;3.74;83.29;96915.38;4998799;28;20038;-64
2021/04/19 02:25:31;;;;;;;27.10;12.70;;;;;;;3.85;82.68;96911.22;4996608;28;20381;-62
2021/04/19 02:28:06;;;;;;;24.42;12.70;;;;;;;3.87;82.22;96906.31;4990310;28;20092;-63
2021/04/19 02:30:36;;;;;;;25.85;13.90;;;;;;;3.71;82.22;96905.97;5002995;28;20038;-62
2021/04/19 02:33:03;;;;;;;27.02;13.20;;;;;;;3.49;83.40;96909.56;4999940;28;20130;-62
2021/04/19 02:35:33;;;;;;;25.33;12.90;;;;;;;3.36;84.48;96908.59;4995591;28;20038;-64
2021/04/19 02:37:59;;;;;;;29.27;14.35;;;;;;;3.24;84.53;96913.81;4998072;28;20050;-63
2021/04/19 02:40:27;;;;;;;24.00;12.98;;;;;;;3.04;85.34;96913.28;4991329;28;20073;-63
2021/04/19 02:42:55;;;;;;;23.65;12.63;;;;;;;2.99;85.78;96916.13;4999656;28;20495;-64
2021/04/19 02:45:22;;;;;;;29.52;14.18;;;;;;;2.96;86.56;96921.34;4989441;28;20346;-63
2021/04/19 02:47:49;;;;;;;32.45;14.15;;;;;;;2.93;85.94;96920.06;5002705;28;20132;-61
2021/04/19 02:50:23;;;;;;;26.50;14.05;;;;;;;2.92;86.68;96913.06;4990093;28;20034;-64
2021/04/19 02:52:50;;;;;;;26.02;13.00;;;;;;;2.91;86.36;96913.38;5002722;28;20041;-61
2021/04/19 02:55:19;;;;;;;28.70;14.18;;;;;;;2.84;86.44;96917.31;4993774;28;20042;-64
2021/04/19 02:57:48;;;;;;;30.10;13.80;;;;;;;2.81;86.89;96919.81;5002802;28;20144;-63
2021/04/19 03:00:16;;;;;;;27.67;13.88;;;;;;;2.98;87.25;96916.44;5007743;28;20312;-62
2021/04/19 03:02:44;;;;;;;30.83;15.00;;;;;;;3.11;86.37;96917.44;4997617;28;20044;-63
2021/04/19 03:05:15;;;;;;;27.05;13.40;;;;;;;3.13;86.33;96917.91;4988815;28;20034;-63
2021/04/19 03:07:53;;;;;;;27.77;14.02;;;;;;;3.06;85.29;96919.16;5003793;28;20511;-64
2021/04/19 03:10:20;;;;;;;25.08;12.93;;;;;;;3.09;85.83;96914.25;5010879;28;20049;-61
2021/04/19 03:12:50;;;;;;;30.25;14.00;;;;;;;3.24;85.37;96919.22;5012057;28;20057;-63
2021/04/19 03:15:21;;;;;;;22.55;11.88;;;;;;;3.33;85.69;96914.66;4997976;28;20409;-62
2021/04/19 03:17:49;;;;;;;26.98;12.73;;;;;;;3.44;84.79;96915.94;4999593;28;20128;-61
2021/04/19 03:20:21;;;;;;;30.10;12.23;;;;;;;3.58;84.16;96913.13;4990959;28;20041;-63
2021/04/19 03:22:50;;;;;;;23.48;13.07;;;;;;;3.63;83.28;96920.28;4997838;28;20069;-62
2021/04/19 03:25:18;;;;;;;23.95;12.98;;;;;;;3.25;83.64;96907.28;4996271;28;20050;-63
2021/04/19 03:27:47;;;;;;;28.02;14.82;;;;;;;2.62;87.52;96917.34;5004061;28;20080;-63
2021/04/19 03:30:14;;;;;;;28.98;14.93;;;;;;;2.54;88.23;96915.38;4998688;28;20149;-63
2021/04/19 03:32:46;;;;;;;28.58;14.23;;;;;;;2.72;87.72;96914.41;5003328;28;20042;-61
2021/04/19 03:35:15;;;;;;;29.65;13.65;;;;;;;3.00;87.27;96912.28;4997816;28;20052;-62
2021/04/19 03:37:44;;;;;;;28.52;13.20;;;;;;;3.11;85.91;96914.72;5002347;28;20078;-62
2021/04/19 03:40:32;;;;;;;24.30;13.82;;;;;;;3.13;85.87;96913.28;5000384;28;20535;-62
2021/04/19 03:43:04;;;;;;;24.77;12.90;;;;;;;3.24;85.43;96908.38;5005039;28;20045;-62
2021/04/19 03:45:35;;;;;;;20.92;12.02;;;;;;;3.30;85.38;96904.44;5004974;28;20042;-63
2021/04/19 03:48:06;;;;;;;26.38;12.70;;;;;;;3.31;85.09;96902.53;5008784;28;20072;-63
2021/04/19 03:50:34;;;;;;;23.50;12.65;;;;;;;3.26;85.08;96903.47;5011506;28;20046;-64
2021/04/19 03:53:03;;;;;;;24.90;13.55;;;;;;;3.24;85.01;96906.50;5003367;28;20049;-63
2021/04/19 03:55:29;;;;;;;22.10;12.95;;;;;;;3.32;85.19;96907.63;4993504;28;20038;-63
2021/04/19 03:57:56;;;;;;;22.95;12.27;;;;;;;3.45;84.14;96908.63;5005441;28;20049;-62
2021/04/19 04:00:23;;;;;;;23.45;12.70;;;;;;;3.43;84.08;96903.50;4997884;28;20476;-62
2021/04/19 04:02:52;;;;;;;21.85;10.88;;;;;;;3.47;84.10;96906.38;4995106;28;20042;-62
2021/04/19 04:05:19;;;;;;;26.60;12.93;;;;;;;3.44;84.11;96905.13;4996770;28;20038;-61
2021/04/19 04:07:47;;;;;;;23.27;12.88;;;;;;;3.39;83.63;96899.06;5004198;28;20136;-61
2021/04/19 04:10:13;;;;;;;22.55;11.68;;;;;;;3.34;83.98;96896.50;4999167;28;20065;-61
2021/04/19 04:12:38;;;;;;;25.13;12.77;;;;;;;3.22;83.62;96905.19;5002503;28;20046;-61
2021/04/19 04:15:05;;;;;;;26.52;13.00;;;;;;;3.24;84.35;96903.78;5001437;28;20188;-61
2021/04/19 04:17:31;;;;;;;23.05;12.27;;;;;;;3.35;84.58;96908.91;4996803;28;20115;-62
2021/04/19 04:19:56;;;;;;;24.80;13.02;;;;;;;3.24;83.91;96900.28;5004498;28;20180;-62
2021/04/19 04:22:22;;;;;;;23.92;12.18;;;;;;;3.14;84.60;96901.38;4999184;28;20068;-64
2021/04/19 04:24:49;;;;;;;27.38;13.75;;;;;;;3.14;85.31;96897.88;5000062;28;20388;-62
2021/04/19 04:27:14;;;;;;;26.55;13.75;;;;;;;3.16;84.84;96909.19;4999003;28;20050;-63
2021/04/19 04:29:40;;;;;;;25.00;13.65;;;;;;;3.04;85.19;96910.56;5000944;28;20507;-63
2021/04/19 04:32:06;;;;;;;28.88;14.70;;;;;;;2.84;86.20;96909.19;4996584;28;20045;-62
2021/04/19 04:34:32;;;;;;;29.83;14.75;;;;;;;2.62;87.27;96911.94;5003785;28;20049;-62
2021/04/19 04:36:58;;;;;;;31.70;14.98;;;;;;;2.45;88.55;96915.34;5004102;28;20050;-62
2021/04/19 04:39:24;;;;;;;31.15;15.77;;;;;;;2.39;89.08;96908.47;4999017;28;20057;-62
2021/04/19 04:41:49;;;;;;;30.67;15.90;;;;;;;2.20;89.87;96916.78;4989894;28;20430;-62
2021/04/19 04:44:25;;;;;;;38.97;16.48;;;;;;;2.22;90.49;96914.56;4997201;28;20041;-63
2021/04/19 04:47:20;;;;;;;34.60;15.50;;;;;;;2.29;90.20;96918.41;5003233;28;20097;-62
2021/04/19 04:50:23;;;;;;;33.63;16.00;;;;;;;2.45;89.58;96920.75;5000692;28;20073;-60
2021/04/19 04:52:59;;;;;;;31.77;15.43;;;;;;;2.53;89.35;96921.91;5003114;28;20045;-63
2021/04/19 04:55:26;;;;;;;28.50;14.52;;;;;;;2.78;89.12;96923.19;5011137;28;20128;-63
2021/04/19 04:57:52;;;;;;;28.50;13.80;;;;;;;2.98;88.37;96927.25;4995896;28;20046;-63
2021/04/19 05:00:19;;;;;;;28.98;14.13;;;;;;;3.19;87.07;96922.09;4996609;28;20069;-62
2021/04/19 05:02:48;;;;;;;27.70;13.82;;;;;;;3.45;85.46;96924.88;5001429;28;20596;-61
2021/04/19 05:05:14;;;;;;;28.00;13.80;;;;;;;3.73;83.79;96925.41;4998482;28;20092;-61
2021/04/19 05:07:41;;;;;;;25.20;13.50;;;;;;;3.85;83.29;96924.78;5003252;28;20080;-61
2021/04/19 05:10:08;;;;;;;22.60;12.63;;;;;;;3.92;83.03;96927.03;4996986;28;20481;-60
2021/04/19 05:12:33;;;;;;;23.92;13.07;;;;;;;3.94;82.89;96927.50;5001444;28;20038;-61
2021/04/19 05:15:07;;;;;;;26.92;13.73;;;;;;;3.72;83.21;96929.22;4998074;28;20397;-61
2021/04/19 05:17:32;;;;;;;24.48;12.90;;;;;;;3.28;85.54;96928.31;4999000;28;20084;-62
2021/04/19 05:19:58;;;;;;;27.08;14.10;;;;;;;3.41;85.79;96934.72;4999196;28;20525;-62
2021/04/19 05:22:23;;;;;;;30.20;14.70;;;;;;;3.40;84.99;96923.13;4989643;28;20081;-62
2021/04/19 05:24:50;;;;;;;33.65;15.35;;;;;;;2.92;86.43;96936.59;5002705;28;20048;-62
2021/04/19 05:27:16;;;;;;;25.35;13.73;;;;;;;3.02;87.83;96941.75;4989116;28;20045;-62
2021/04/19 05:29:42;;;;;;;30.30;15.05;;;;;;;3.14;87.22;96941.97;5000287;28;20046;-62
2021/04/19 05:32:08;;;;;;;33.00;15.18;;;;;;;3.29;86.78;96943.44;4992931;28;20370;-62
2021/04/19 05:34:35;;;;;;;30.90;15.00;;;;;;;3.42;85.67;96936.31;4991550;28;20050;-61
2021/04/19 05:37:02;;;;;;;29.17;14.45;;;;;;;3.61;85.02;96941.47;5003397;28;20046;-63
2021/04/19 05:39:28;;;;;;;32.40;15.20;;;;;;;3.87;84.21;96938.00;5002870;28;20042;-62
2021/04/19 05:41:54;;;;;;;23.10;13.43;;;;;;;4.05;82.80;96941.53;4994114;28;20052;-63
2021/04/19 05:44:20;;;;;;;25.98;13.77;;;;;;;4.13;81.12;96936.13;5003900;28;20124;-64
2021/04/19 05:46:46;;;;;;;29.23;15.57;;;;;;;4.07;81.81;96936.59;5003385;28;20072;-63
2021/04/19 05:49:11;;;;;;;30.35;15.40;;;;;;;4.00;82.31;96945.22;4993554;28;20077;-62
2021/04/19 05:51:42;;;;;;;26.73;14.18;;;;;;;4.20;82.28;96941.88;4998157;28;20052;-60
2021/04/19 05:54:09;;;;;;;24.40;13.40;;;;;;;4.36;81.13;96944.09;4993868;28;20508;-63
2021/04/19 05:56:40;;;;;;;23.52;12.55;;;;;;;4.68;80.17;96940.06;5005276;28;20049;-61
2021/04/19 05:59:13;;;;;;;24.55;12.55;;;;;;;5.12;78.18;96943.47;5012305;28;20037;-62
2021/04/19 06:01:43;;;;;;;22.45;12.07;;;;;;;5.19;77.66;96948.41;5008853;28;20139;-62
2021/04/19 06:04:21;;;;;;;22.45;12.13;;;;;;;5.25;76.58;96936.22;4994062;28;20054;-63
2021/04/19 06:06:57;;;;;;;24.38;12.68;;;;;;;5.40;76.23;96945.72;4996622;28;20045;-63
2021/04/19 06:09:33;;;;;;;24.40;13.00;;;;;;;5.47;75.99;96943.31;4991639;28;20134;-62
2021/04/19 06:12:06;;;;;;;26.88;13.38;;;;;;;5.50;76.70;96941.88;4999782;28;20050;-62
2021/04/19 06:14:35;;;;;;;62.28;30.83;;;;;;;5.30;76.49;96938.75;4984808;28;20038;-62
2021/04/19 06:17:02;;;;;;;40.17;19.08;;;;;;;5.16;77.62;96940.88;4986415;28;20421;-62
2021/04/19 06:19:30;;;;;;;28.50;15.75;;;;;;;5.04;78.59;96944.31;4987851;28;20065;-62
2021/04/19 06:21:55;;;;;;;26.17;13.23;;;;;;;5.17;78.00;96937.06;5000547;28;20034;-61
2021/04/19 06:24:21;;;;;;;32.08;20.02;;;;;;;4.91;78.50;96942.56;4996255;28;20034;-62
2021/04/19 06:26:47;;;;;;;33.85;19.25;;;;;;;5.38;78.25;96942.56;5000983;28;20053;-62
2021/04/19 06:29:13;;;;;;;24.40;12.88;;;;;;;6.09;75.66;96936.41;4993990;28;20495;-61
2021/04/19 06:31:48;;;;;;;32.58;16.25;;;;;;;6.48;74.21;96947.13;4994982;28;20056;-61
2021/04/19 06:34:15;;;;;;;26.95;14.38;;;;;;;7.14;70.84;96945.53;4985542;28;20046;-64
2021/04/19 06:36:45;;;;;;;20.33;12.27;;;;;;;7.99;67.28;96941.19;4999680;28;20133;-63
2021/04/19 06:39:12;;;;;;;23.50;12.73;;;;;;;8.24;65.47;96940.00;4992130;28;20532;-63
2021/04/19 06:41:38;;;;;;;23.30;13.07;;;;;;;6.74;70.84;96944.19;4993908;28;20076;-62
2021/04/19 06:44:05;;;;;;;22.20;12.52;;;;;;;6.38;73.52;96940.19;4993515;28;20054;-62
2021/04/19 06:46:32;;;;;;;26.35;14.13;;;;;;;6.93;71.20;96938.19;4998825;28;20046;-62
2021/04/19 06:48:58;;;;;;;24.00;13.93;;;;;;;6.84;72.17;96934.78;4983702;28;20052;-61
2021/04/19 06:51:24;;;;;;;24.20;14.40;;;;;;;6.43;73.43;96941.91;4995960;28;20526;-61
2021/04/19 06:53:53;;;;;;;25.83;15.25;;;;;;;6.41;72.74;96933.28;5000815;28;20038;-62
2021/04/19 06:56:24;;;;;;;26.77;16.20;;;;;;;6.28;73.13;96935.97;4994997;28;20442;-62
2021/04/19 06:58:54;;;;;;;25.48;15.27;;;;;;;7.04;71.05;96923.03;4996652;28;20042;-63
2021/04/19 07:01:23;;;;;;;26.58;13.77;;;;;;;8.57;65.52;96919.09;4991713;28;20041;-61
2021/04/19 07:04:00;;;;;;;23.45;12.82;;;;;;;8.86;62.93;96915.22;4998334;28;20104;-61
2021/04/19 07:06:30;;;;;;;28.38;13.55;;;;;;;9.98;60.18;96921.44;4995978;28;20061;-63
2021/04/19 07:09:02;;;;;;;26.00;14.73;;;;;;;10.24;57.01;96918.06;5013068;28;20049;-63
2021/04/19 07:11:30;;;;;;;19.98;11.75;;;;;;;10.41;56.85;96916.13;5003569;28;20046;-62
2021/04/19 07:13:59;;;;;;;24.80;12.88;;;;;;;10.51;57.66;96923.75;5002077;28;20129;-61
2021/04/19 07:16:25;;;;;;;24.33;13.02;;;;;;;10.94;56.47;96923.78;4992198;28;20050;-62
2021/04/19 07:18:50;;;;;;;24.83;13.07;;;;;;;10.26;58.96;96929.50;4995660;28;20038;-62
2021/04/19 07:21:16;;;;;;;22.40;12.10;;;;;;;10.06;59.53;96923.16;4996365;28;20056;-60
2021/04/19 07:23:42;;;;;;;26.20;11.73;;;;;;;11.84;54.29;96920.56;5000491;28;20576;-61
2021/04/19 07:26:07;;;;;;;22.10;12.35;;;;;;;12.79;49.94;96916.72;4993784;28;20477;-61
2021/04/19 07:28:37;;;;;;;28.88;13.55;;;;;;;12.35;51.65;96908.34;5002607;28;20056;-63
2021/04/19 07:31:05;;;;;;;21.75;12.40;;;;;;;12.17;50.50;96905.38;5003079;28;20069;-62
2021/04/19 07:33:32;;;;;;;23.25;12.73;;;;;;;12.27;50.79;96914.94;4991045;28;20065;-61
2021/04/19 07:36:19;;;;;;;25.15;12.80;;;;;;;11.85;53.04;96906.50;5001955;28;20408;-63
2021/04/19 07:38:45;;;;;;;30.00;13.40;;;;;;;11.65;52.81;96908.53;4994097;28;20133;-63
2021/04/19 07:41:10;;;;;;;22.85;12.88;;;;;;;11.78;53.49;96916.56;4985353;28;20049;-62
2021/04/19 07:43:37;;;;;;;19.65;12.80;;;;;;;12.85;50.66;96902.66;4992489;28;20045;-62
2021/04/19 07:46:09;;;;;;;22.95;13.32;;;;;;;14.17;46.92;96899.41;4990160;28;20046;-62
2021/04/19 07:48:34;;;;;;;20.25;11.70;;;;;;;15.74;42.96;96912.84;4996914;28;20042;-62
2021/04/19 07:51:21;;;;;;;19.80;11.40;;;;;;;16.32;41.74;96898.94;4997571;28;20053;-63
2021/04/19 07:53:47;;;;;;;18.45;11.18;;;;;;;16.57;39.80;96898.84;4995082;28;20049;-63
2021/04/19 07:56:17;;;;;;;18.05;11.45;;;;;;;16.54;40.79;96896.88;4988887;28;20045;-62
2021/04/19 07:58:43;;;;;;;17.92;11.40;;;;;;;17.57;37.70;96892.72;4997285;28;20050;-62
2021/04/19 08:01:08;;;;;;;22.63;11.27;;;;;;;16.12;39.85;96887.56;4991667;28;20115;-62
2021/04/19 08:03:39;;;;;;;21.90;12.57;;;;;;;14.90;42.17;96897.38;4994939;28;20500;-63
2021/04/19 08:06:21;;;;;;;22.50;13.23;;;;;;;15.96;41.25;96899.81;4988413;28;20057;-61
2021/04/19 08:08:48;;;;;;;20.10;11.35;;;;;;;14.70;44.21;96890.63;4992908;28;20416;-64
2021/04/19 08:11:17;;;;;;;19.95;11.05;;;;;;;16.34;41.96;96888.28;4989980;28;20096;-64
2021/04/19 08:13:44;;;;;;;16.63;10.93;;;;;;;17.26;37.81;96896.53;4994691;28;20049;-63
2021/04/19 08:16:15;;;;;;;25.85;13.45;;;;;;;15.95;39.88;96891.91;4995602;28;20041;-62
2021/04/19 08:18:41;;;;;;;18.08;10.95;;;;;;;14.06;44.06;96891.91;5005675;28;20056;-62
2021/04/19 08:21:07;;;;;;;22.10;12.13;;;;;;;15.62;40.80;96891.13;4994558;28;20050;-63
2021/04/19 08:23:43;;;;;;;18.27;10.70;;;;;;;16.01;39.71;96882.06;4997634;28;20559;-63
2021/04/19 08:26:09;;;;;;;19.08;11.52;;;;;;;16.87;38.18;96884.53;4995834;28;20042;-62
2021/04/19 08:28:46;;;;;;;15.93;9.73;;;;;;;17.26;36.60;96885.44;5005317;28;20448;-63
2021/04/19 08:31:13;;;;;;;16.95;11.45;;;;;;;12.88;45.72;96891.69;4995875;28;20540;-61
2021/04/19 08:33:42;;;;;;;21.23;13.23;;;;;;;11.89;49.97;96887.31;5001645;28;20054;-62
2021/04/19 08:36:12;;;;;;;20.65;12.35;;;;;;;13.01;46.35;96884.75;4989306;28;20440;-63
2021/04/19 08:38:38;;;;;;;30.17;13.93;;;;;;;13.59;44.97;96888.03;4993976;28;20053;-62
2021/04/19 08:41:05;;;;;;;19.05;11.82;;;;;;;14.58;43.06;96889.00;4993924;28;20400;-61
2021/04/19 08:43:34;;;;;;;24.08;12.48;;;;;;;14.55;45.00;96884.25;4990909;28;20046;-61
2021/04/19 08:46:01;;;;;;;23.02;13.23;;;;;;;15.23;43.60;96895.47;4992533;28;20057;-62
2021/04/19 08:48:27;;;;;;;23.15;12.63;;;;;;;15.48;42.48;96891.91;4993552;28;20454;-62
2021/04/19 08:50:53;;;;;;;23.48;12.35;;;;;;;14.68;44.15;96893.75;5000837;28;20061;-61
2021/04/19 08:53:20;;;;;;;22.55;13.40;;;;;;;14.03;45.47;96900.91;4993586;28;20038;-61
2021/04/19 08:55:47;;;;;;;25.55;12.40;;;;;;;13.80;46.58;96895.66;4997352;28;20050;-61
2021/04/19 08:58:15;;;;;;;24.05;12.77;;;;;;;14.26;44.89;96899.84;4997301;28;20046;-61
2021/04/19 09:00:44;;;;;;;19.52;12.50;;;;;;;13.01;46.87;96898.50;5002025;28;20092;-60
2021/04/19 09:03:11;;;;;;;21.65;12.75;;;;;;;13.83;45.69;96894.91;4994493;28;20504;-61
2021/04/19 09:05:36;;;;;;;20.55;12.70;;;;;;;13.78;45.73;96895.25;4999630;28;20152;-62
2021/04/19 09:08:12;;;;;;;24.85;13.90;;;;;;;13.35;46.35;96897.66;4994670;28;20149;-61
2021/04/19 09:11:05;;;;;;;24.63;13.27;;;;;;;13.55;45.68;96889.97;5002947;28;20041;-63
2021/04/19 09:13:32;;;;;;;20.70;12.02;;;;;;;13.49;45.88;96889.53;4998730;28;20619;-61
2021/04/19 09:16:14;;;;;;;23.90;12.80;;;;;;;15.14;43.11;96886.75;4994035;28;20472;-61
2021/04/19 09:18:43;;;;;;;21.50;13.00;;;;;;;13.33;46.62;96883.50;4999011;28;20038;-61
2021/04/19 09:21:08;;;;;;;24.27;12.85;;;;;;;14.27;44.26;96873.88;4995706;28;20046;-63
2021/04/19 09:23:35;;;;;;;23.83;12.70;;;;;;;14.38;43.62;96876.69;4993967;28;20049;-63
2021/04/19 09:26:01;;;;;;;21.67;13.00;;;;;;;14.68;43.83;96870.94;5000370;28;20072;-63
2021/04/19 09:28:38;;;;;;;21.42;12.55;;;;;;;14.75;42.90;96872.91;4990005;28;20049;-63
2021/04/19 09:31:04;;;;;;;22.85;12.90;;;;;;;15.39;41.85;96866.69;4995784;28;20065;-61
2021/04/19 09:33:30;;;;;;;25.20;13.00;;;;;;;15.73;40.20;96869.03;4998387;28;20065;-61
2021/04/19 09:35:55;;;;;;;24.20;12.95;;;;;;;14.68;42.81;96871.72;5014721;28;20069;-61
2021/04/19 09:38:30;;;;;;;23.63;12.80;;;;;;;15.37;40.72;96875.34;5000550;28;20523;-62
2021/04/19 09:41:04;;;;;;;23.02;12.23;;;;;;;15.25;42.04;96864.69;5003328;28;20046;-62
2021/04/19 09:43:37;;;;;;;23.17;12.43;;;;;;;15.53;40.18;96865.91;4991661;28;20142;-63
2021/04/19 09:46:07;;;;;;;21.60;12.45;;;;;;;15.17;41.56;96866.69;4996752;28;20054;-62
2021/04/19 09:48:38;;;;;;;20.48;12.45;;;;;;;16.08;39.58;96861.88;5001892;28;20042;-62
2021/04/19 09:51:17;;;;;;;22.50;12.90;;;;;;;13.43;45.29;96865.50;5000109;28;20046;-62
2021/04/19 09:54:05;;;;;;;17.60;10.82;;;;;;;16.07;38.98;96854.81;4993360;28;20054;-62
2021/04/19 09:56:47;;;;;;;17.83;9.95;;;;;;;16.66;37.43;96848.66;4989256;28;20050;-61
2021/04/19 09:59:21;;;;;;;17.02;9.60;;;;;;;17.33;36.32;96850.19;5001837;28;20118;-63
2021/04/19 10:01:48;;;;;;;16.15;9.25;;;;;;;18.29;34.10;96847.72;5003145;28;20048;-63
2021/04/19 10:04:14;;;;;;;15.07;9.77;;;;;;;18.36;33.60;96844.06;5002058;28;20034;-63
2021/04/19 10:06:44;;;;;;;21.83;11.35;;;;;;;17.16;36.47;96848.34;5001759;28;20054;-62
2021/04/19 10:09:11;;;;;;;;;;;;;;;17.37;35.19;96842.63;4993661;28;20651;-61
2021/04/19 10:11:44;;;;;;;17.60;10.75;;;;;;;18.08;33.77;96840.41;5006444;28;19917;-64
2021/04/19 10:14:13;;;;;;;20.92;11.52;;;;;;;18.26;33.27;96834.69;4988850;28;20052;-61
2021/04/19 10:16:47;;;;;;;16.08;10.27;;;;;;;17.27;35.04;96834.41;5003259;28;20088;-63
2021/04/19 10:19:29;;;;;;;17.63;10.77;;;;;;;16.87;36.16;96845.78;4997788;28;20046;-63
2021/04/19 10:22:05;;;;;;;20.45;10.57;;;;;;;16.81;35.45;96842.59;5002871;28;20691;-62
2021/04/19 10:24:33;;;;;;;17.60;9.48;;;;;;;15.60;38.15;96846.56;5010682;28;20075;-62
2021/04/19 10:26:58;;;;;;;18.02;10.05;;;;;;;15.20;38.95;96843.81;5020130;28;20160;-61
2021/04/19 10:29:27;;;;;;;15.48;9.02;;;;;;;15.38;38.74;96843.03;5016061;28;20607;-63
2021/04/19 10:31:58;;;;;;;16.33;9.85;;;;;;;15.98;37.96;96838.63;5016649;28;20401;-62
2021/04/19 10:34:26;;;;;;;16.85;9.75;;;;;;;15.98;37.22;96841.41;5013106;28;20524;-63
2021/04/19 10:36:57;;;;;;;18.98;8.93;;;;;;;15.34;37.88;96837.53;5024586;28;20101;-63
2021/04/19 10:39:29;;;;;;;15.65;8.98;;;;;;;15.34;38.29;96837.53;5015301;28;20041;-64
2021/04/19 10:41:57;;;;;;;15.13;9.27;;;;;;;15.37;37.84;96825.69;5021033;28;20040;-63
2021/04/19 10:44:38;;;;;;;14.60;8.05;;;;;;;15.54;36.78;96837.09;4999842;28;20479;-62
2021/04/19 10:47:11;;;;;;;14.45;7.35;;;;;;;15.42;37.79;96830.81;5024732;28;20053;-61
2021/04/19 10:49:37;;;;;;;13.60;7.45;;;;;;;15.55;36.13;96827.66;5024756;28;20052;-63
2021/04/19 10:52:07;;;;;;;11.98;7.28;;;;;;;15.03;35.77;96817.00;5017983;28;20385;-61
2021/04/19 10:54:51;;;;;;;9.63;5.63;;;;;;;15.51;34.28;96826.88;5014045;28;20124;-64
2021/04/19 10:57:25;;;;;;;8.88;5.22;;;;;;;14.33;35.55;96819.97;5014207;28;20833;-61
2021/04/19 10:59:53;;;;;;;8.48;4.55;;;;;;;15.65;32.39;96808.31;5020842;28;20041;-62
2021/04/19 11:02:23;;;;;;;7.30;3.58;;;;;;;15.33;31.82;96802.81;5015940;28;20041;-62
2021/04/19 11:04:48;;;;;;;;;;;;;;;15.01;34.97;96816.63;5019719;28;20520;-63
2021/04/19 11:07:24;;;;;;;9.00;4.88;;;;;;;15.44;33.43;96805.56;5006325;28;19929;-63
2021/04/19 11:10:16;;;;;;;9.20;6.05;;;;;;;15.03;35.06;96811.50;5020129;28;20471;-62
2021/04/19 11:13:04;;;;;;;10.15;6.65;;;;;;;15.17;35.77;96803.22;5003639;28;20038;-62
2021/04/19 11:15:58;;;;;;;10.63;5.40;;;;;;;15.32;35.12;96806.75;5011899;28;20040;-62
2021/04/19 11:18:28;;;;;;;9.88;5.80;;;;;;;15.05;35.24;96800.84;5013364;28;20794;-62
2021/04/19 11:20:57;;;;;;;12.38;6.55;;;;;;;14.43;35.42;96794.44;5012269;28;20389;-63
2021/04/19 11:23:27;;;;;;;13.07;6.07;;;;;;;15.02;35.31;96796.16;5014037;28;20077;-62
2021/04/19 11:25:56;;;;;;;10.25;5.35;;;;;;;14.95;34.26;96799.69;5021354;28;20127;-64
2021/04/19 11:28:38;;;;;;;14.68;6.15;;;;;;;15.18;34.13;96791.03;5007345;28;20373;-63
2021/04/19 11:31:41;;;;;;;9.80;5.20;;;;;;;15.07;34.24;96793.78;5004592;28;20046;-62
2021/04/19 11:34:14;;;;;;;8.35;5.43;;;;;;;14.96;35.26;96790.22;5013408;28;20034;-61
2021/04/19 11:36:43;;;;;;;10.10;5.70;;;;;;;14.31;36.68;96783.75;5013477;28;20108;-61